Skip Navigation Links Skip Navigation Links

Current Weather

Metcalf Field, Toledo, Ohio

For information only: do not use for flight planning or navigation.
Latest weather
Observation time Thursday, October 17, 2019 12:53 AM EDT
Local time Thursday, October 17, 2019 2:05 AM EDT
Flight conditions Visual Meteorological Conditions
Winds
Wind direction West-Northwest (290°)
Wind speed 15 mph
Peak wind speed 31 mph, 12:08 AM
Peak wind direction Northwest (310°)
Visibility 10 mi.
Sky condition
Ceiling 3,600 ft. overcast
Cloud layer overcast 3,600 ft.
Temperature 47°F
Dewpoint 38°F
Altimeter 29.85 in.Hg
Derived measurements
Relative humidity 71%
Wind chill 41°F
Density altitude 15 ft.
Sea-level pressure 29.85 in.Hg
Climate data
Temperature minimum, last 24 hours 47°F
Temperature maximum, last 24 hours 63°F
Remarks
Fully automated report.
Automated weather observing station with precipitation discriminator.
METAR KTDZ 170453Z AUTO 29013KT 10SM OVC036 08/03 A2985 RMK AO2 PK WND 31027/0408 SLP109 T00830033 401720083

Settings

Location code

InnerDrive.Weather 4.0.6770.0 Release CLR 4.0.30319.42000
Copyright ©2018 Inner Drive Technology. All rights reserved. Portions Copyright ©1986-2018 David Braverman.

Find weather

Site navigation


Skip Navigation Links

Place info

Page info

PayPal - The safer, easier way to pay online!

Return home.

Copyright ©2019 Inner Drive Technology. Purveyors of fine, hand-crafted computer software. Page printed 2019-10-17T06:05:46 UTC.